sensor_id;sensor_type;location;lat;lon;timestamp;P1;durP1;ratioP1;P2;durP2;ratioP2
14052;SDS011;7101;51.600;7.310;2022-08-19T00:00:16;7.13;;;5.75;;
14052;SDS011;7101;51.600;7.310;2022-08-19T00:02:44;7.55;;;5.55;;
14052;SDS011;7101;51.600;7.310;2022-08-19T00:05:13;7.22;;;5.53;;
14052;SDS011;7101;51.600;7.310;2022-08-19T00:07:41;10.70;;;6.32;;
14052;SDS011;7101;51.600;7.310;2022-08-19T00:10:09;8.18;;;5.45;;
14052;SDS011;7101;51.600;7.310;2022-08-19T00:12:37;8.95;;;5.88;;
14052;SDS011;7101;51.600;7.310;2022-08-19T00:15:05;6.03;;;5.50;;
14052;SDS011;7101;51.600;7.310;2022-08-19T00:17:37;6.05;;;5.45;;
14052;SDS011;7101;51.600;7.310;2022-08-19T00:20:04;7.05;;;5.63;;
14052;SDS011;7101;51.600;7.310;2022-08-19T00:22:33;7.10;;;5.45;;
14052;SDS011;7101;51.600;7.310;2022-08-19T00:25:00;6.78;;;6.07;;
14052;SDS011;7101;51.600;7.310;2022-08-19T00:27:27;10.25;;;6.32;;
14052;SDS011;7101;51.600;7.310;2022-08-19T00:29:54;7.13;;;5.55;;
14052;SDS011;7101;51.600;7.310;2022-08-19T00:32:21;7.28;;;6.25;;
14052;SDS011;7101;51.600;7.310;2022-08-19T00:34:48;7.45;;;5.97;;
14052;SDS011;7101;51.600;7.310;2022-08-19T00:37:16;7.07;;;5.60;;
14052;SDS011;7101;51.600;7.310;2022-08-19T00:39:45;8.43;;;6.30;;
14052;SDS011;7101;51.600;7.310;2022-08-19T00:42:12;9.55;;;6.30;;
14052;SDS011;7101;51.600;7.310;2022-08-19T00:44:40;6.90;;;6.18;;
14052;SDS011;7101;51.600;7.310;2022-08-19T00:47:08;7.53;;;6.07;;
14052;SDS011;7101;51.600;7.310;2022-08-19T00:49:37;8.52;;;5.75;;
14052;SDS011;7101;51.600;7.310;2022-08-19T00:52:08;8.38;;;6.47;;
14052;SDS011;7101;51.600;7.310;2022-08-19T00:54:38;7.65;;;6.82;;
14052;SDS011;7101;51.600;7.310;2022-08-19T00:57:09;6.75;;;6.05;;
14052;SDS011;7101;51.600;7.310;2022-08-19T00:59:40;8.00;;;5.85;;
14052;SDS011;7101;51.600;7.310;2022-08-19T01:02:10;7.63;;;6.45;;
14052;SDS011;7101;51.600;7.310;2022-08-19T01:04:37;6.70;;;6.10;;
14052;SDS011;7101;51.600;7.310;2022-08-19T01:07:04;7.60;;;6.90;;
14052;SDS011;7101;51.600;7.310;2022-08-19T01:09:31;6.95;;;6.28;;
14052;SDS011;7101;51.600;7.310;2022-08-19T01:11:58;9.00;;;7.03;;
14052;SDS011;7101;51.600;7.310;2022-08-19T01:14:26;8.32;;;7.50;;
14052;SDS011;7101;51.600;7.310;2022-08-19T01:16:53;7.55;;;6.85;;
14052;SDS011;7101;51.600;7.310;2022-08-19T01:19:24;7.60;;;6.80;;
14052;SDS011;7101;51.600;7.310;2022-08-19T01:21:55;8.63;;;6.95;;
14052;SDS011;7101;51.600;7.310;2022-08-19T01:24:28;8.20;;;7.38;;
14052;SDS011;7101;51.600;7.310;2022-08-19T01:26:55;11.23;;;8.00;;
14052;SDS011;7101;51.600;7.310;2022-08-19T01:29:22;9.02;;;8.13;;
14052;SDS011;7101;51.600;7.310;2022-08-19T01:31:49;12.82;;;8.10;;
14052;SDS011;7101;51.600;7.310;2022-08-19T01:34:18;10.25;;;7.93;;
14052;SDS011;7101;51.600;7.310;2022-08-19T01:36:47;8.82;;;7.82;;
14052;SDS011;7101;51.600;7.310;2022-08-19T01:39:15;11.50;;;7.72;;
14052;SDS011;7101;51.600;7.310;2022-08-19T01:41:46;11.00;;;8.00;;
14052;SDS011;7101;51.600;7.310;2022-08-19T01:44:13;10.15;;;7.68;;
14052;SDS011;7101;51.600;7.310;2022-08-19T01:46:41;8.13;;;7.25;;
14052;SDS011;7101;51.600;7.310;2022-08-19T01:49:08;9.93;;;7.15;;
14052;SDS011;7101;51.600;7.310;2022-08-19T01:51:36;8.90;;;8.07;;
14052;SDS011;7101;51.600;7.310;2022-08-19T01:54:04;8.93;;;8.02;;
14052;SDS011;7101;51.600;7.310;2022-08-19T01:56:31;8.57;;;7.78;;
14052;SDS011;7101;51.600;7.310;2022-08-19T01:59:00;8.25;;;7.43;;
14052;SDS011;7101;51.600;7.310;2022-08-19T02:01:30;10.73;;;8.57;;
14052;SDS011;7101;51.600;7.310;2022-08-19T02:03:57;11.05;;;7.97;;
14052;SDS011;7101;51.600;7.310;2022-08-19T02:06:25;9.50;;;8.57;;
14052;SDS011;7101;51.600;7.310;2022-08-19T02:08:53;9.18;;;8.25;;
14052;SDS011;7101;51.600;7.310;2022-08-19T02:11:20;8.98;;;7.78;;
14052;SDS011;7101;51.600;7.310;2022-08-19T02:13:51;9.40;;;8.38;;
14052;SDS011;7101;51.600;7.310;2022-08-19T02:16:20;11.18;;;9.63;;
14052;SDS011;7101;51.600;7.310;2022-08-19T02:18:48;9.90;;;8.93;;
14052;SDS011;7101;51.600;7.310;2022-08-19T02:21:15;11.38;;;9.35;;
14052;SDS011;7101;51.600;7.310;2022-08-19T02:23:42;10.50;;;9.40;;
14052;SDS011;7101;51.600;7.310;2022-08-19T02:26:12;10.57;;;9.57;;
14052;SDS011;7101;51.600;7.310;2022-08-19T02:28:39;10.35;;;9.32;;
14052;SDS011;7101;51.600;7.310;2022-08-19T02:31:08;10.52;;;9.43;;
14052;SDS011;7101;51.600;7.310;2022-08-19T02:33:37;11.05;;;9.73;;
14052;SDS011;7101;51.600;7.310;2022-08-19T02:36:05;10.63;;;9.52;;
14052;SDS011;7101;51.600;7.310;2022-08-19T02:38:32;10.10;;;9.10;;
14052;SDS011;7101;51.600;7.310;2022-08-19T02:41:00;11.77;;;10.02;;
14052;SDS011;7101;51.600;7.310;2022-08-19T02:43:30;10.00;;;8.85;;
14052;SDS011;7101;51.600;7.310;2022-08-19T02:46:02;10.05;;;9.05;;
14052;SDS011;7101;51.600;7.310;2022-08-19T02:48:38;11.98;;;9.20;;
14052;SDS011;7101;51.600;7.310;2022-08-19T02:51:05;11.98;;;9.18;;
14052;SDS011;7101;51.600;7.310;2022-08-19T02:53:31;10.85;;;8.82;;
14052;SDS011;7101;51.600;7.310;2022-08-19T02:55:58;11.45;;;8.60;;
14052;SDS011;7101;51.600;7.310;2022-08-19T02:58:25;9.68;;;8.77;;
14052;SDS011;7101;51.600;7.310;2022-08-19T03:00:53;11.32;;;9.52;;
14052;SDS011;7101;51.600;7.310;2022-08-19T03:03:22;12.45;;;9.40;;
14052;SDS011;7101;51.600;7.310;2022-08-19T03:05:50;11.30;;;9.25;;
14052;SDS011;7101;51.600;7.310;2022-08-19T03:08:17;10.38;;;8.77;;
14052;SDS011;7101;51.600;7.310;2022-08-19T03:10:45;11.93;;;9.00;;
14052;SDS011;7101;51.600;7.310;2022-08-19T03:13:14;9.82;;;8.55;;
14052;SDS011;7101;51.600;7.310;2022-08-19T03:15:43;10.18;;;8.50;;
14052;SDS011;7101;51.600;7.310;2022-08-19T03:18:12;11.48;;;9.25;;
14052;SDS011;7101;51.600;7.310;2022-08-19T03:20:40;11.48;;;10.05;;
14052;SDS011;7101;51.600;7.310;2022-08-19T03:23:09;11.05;;;9.88;;
14052;SDS011;7101;51.600;7.310;2022-08-19T03:25:38;15.93;;;11.07;;
14052;SDS011;7101;51.600;7.310;2022-08-19T03:28:08;12.80;;;9.85;;
14052;SDS011;7101;51.600;7.310;2022-08-19T03:30:35;11.68;;;9.50;;
14052;SDS011;7101;51.600;7.310;2022-08-19T03:33:02;13.57;;;9.65;;
14052;SDS011;7101;51.600;7.310;2022-08-19T03:35:28;14.40;;;9.85;;
14052;SDS011;7101;51.600;7.310;2022-08-19T03:37:55;11.23;;;9.55;;
14052;SDS011;7101;51.600;7.310;2022-08-19T03:40:25;11.68;;;9.93;;
14052;SDS011;7101;51.600;7.310;2022-08-19T03:42:54;11.40;;;9.90;;
14052;SDS011;7101;51.600;7.310;2022-08-19T03:45:22;9.93;;;9.02;;
14052;SDS011;7101;51.600;7.310;2022-08-19T03:47:49;11.10;;;10.10;;
14052;SDS011;7101;51.600;7.310;2022-08-19T03:50:15;11.95;;;10.60;;
14052;SDS011;7101;51.600;7.310;2022-08-19T03:52:47;15.15;;;11.05;;
14052;SDS011;7101;51.600;7.310;2022-08-19T03:55:15;12.13;;;10.63;;
14052;SDS011;7101;51.600;7.310;2022-08-19T03:57:43;13.70;;;11.50;;
14052;SDS011;7101;51.600;7.310;2022-08-19T04:00:14;15.02;;;11.35;;
14052;SDS011;7101;51.600;7.310;2022-08-19T04:02:41;16.80;;;10.40;;
14052;SDS011;7101;51.600;7.310;2022-08-19T04:05:08;12.50;;;10.10;;
14052;SDS011;7101;51.600;7.310;2022-08-19T04:07:36;12.30;;;10.55;;
14052;SDS011;7101;51.600;7.310;2022-08-19T04:10:03;13.40;;;10.70;;
14052;SDS011;7101;51.600;7.310;2022-08-19T04:12:30;14.98;;;10.70;;
14052;SDS011;7101;51.600;7.310;2022-08-19T04:14:58;15.10;;;9.85;;
14052;SDS011;7101;51.600;7.310;2022-08-19T04:17:25;11.68;;;10.38;;
14052;SDS011;7101;51.600;7.310;2022-08-19T04:19:52;15.30;;;9.70;;
14052;SDS011;7101;51.600;7.310;2022-08-19T04:22:19;11.32;;;9.63;;
14052;SDS011;7101;51.600;7.310;2022-08-19T04:24:46;11.20;;;10.10;;
14052;SDS011;7101;51.600;7.310;2022-08-19T04:27:12;13.30;;;9.85;;
14052;SDS011;7101;51.600;7.310;2022-08-19T04:29:40;10.63;;;9.52;;
14052;SDS011;7101;51.600;7.310;2022-08-19T04:32:09;12.55;;;9.57;;
14052;SDS011;7101;51.600;7.310;2022-08-19T04:34:36;10.25;;;9.25;;
14052;SDS011;7101;51.600;7.310;2022-08-19T04:37:05;12.02;;;9.90;;
14052;SDS011;7101;51.600;7.310;2022-08-19T04:39:32;13.65;;;9.45;;
14052;SDS011;7101;51.600;7.310;2022-08-19T04:42:17;9.95;;;8.95;;
14052;SDS011;7101;51.600;7.310;2022-08-19T04:45:01;10.07;;;9.00;;
14052;SDS011;7101;51.600;7.310;2022-08-19T04:47:30;11.85;;;9.10;;
14052;SDS011;7101;51.600;7.310;2022-08-19T04:49:57;11.25;;;9.27;;
14052;SDS011;7101;51.600;7.310;2022-08-19T04:52:25;11.35;;;9.27;;
14052;SDS011;7101;51.600;7.310;2022-08-19T04:54:52;16.98;;;9.98;;
14052;SDS011;7101;51.600;7.310;2022-08-19T04:57:20;10.52;;;9.43;;
14052;SDS011;7101;51.600;7.310;2022-08-19T04:59:47;11.50;;;8.93;;
14052;SDS011;7101;51.600;7.310;2022-08-19T05:02:14;10.63;;;8.77;;
14052;SDS011;7101;51.600;7.310;2022-08-19T05:04:43;9.95;;;8.50;;
14052;SDS011;7101;51.600;7.310;2022-08-19T05:07:10;12.82;;;7.95;;
14052;SDS011;7101;51.600;7.310;2022-08-19T05:09:37;9.55;;;8.65;;
14052;SDS011;7101;51.600;7.310;2022-08-19T05:12:04;8.77;;;7.97;;
14052;SDS011;7101;51.600;7.310;2022-08-19T05:14:31;11.65;;;8.77;;
14052;SDS011;7101;51.600;7.310;2022-08-19T05:17:00;10.57;;;8.57;;
14052;SDS011;7101;51.600;7.310;2022-08-19T05:19:27;10.98;;;9.05;;
14052;SDS011;7101;51.600;7.310;2022-08-19T05:22:15;10.73;;;8.90;;
14052;SDS011;7101;51.600;7.310;2022-08-19T05:25:04;9.88;;;8.35;;
14052;SDS011;7101;51.600;7.310;2022-08-19T05:27:33;10.18;;;9.23;;
14052;SDS011;7101;51.600;7.310;2022-08-19T05:30:00;9.55;;;8.65;;
14052;SDS011;7101;51.600;7.310;2022-08-19T05:32:27;12.63;;;9.90;;
14052;SDS011;7101;51.600;7.310;2022-08-19T05:34:54;15.45;;;9.48;;
14052;SDS011;7101;51.600;7.310;2022-08-19T05:37:22;10.32;;;9.23;;
14052;SDS011;7101;51.600;7.310;2022-08-19T05:39:51;9.05;;;8.13;;
14052;SDS011;7101;51.600;7.310;2022-08-19T05:42:19;11.70;;;10.18;;
14052;SDS011;7101;51.600;7.310;2022-08-19T05:44:50;11.63;;;9.90;;
14052;SDS011;7101;51.600;7.310;2022-08-19T05:47:17;14.77;;;10.00;;
14052;SDS011;7101;51.600;7.310;2022-08-19T05:49:45;13.88;;;10.20;;
14052;SDS011;7101;51.600;7.310;2022-08-19T05:52:12;12.77;;;9.05;;
14052;SDS011;7101;51.600;7.310;2022-08-19T05:54:43;12.30;;;9.10;;
14052;SDS011;7101;51.600;7.310;2022-08-19T05:57:12;11.15;;;10.02;;
14052;SDS011;7101;51.600;7.310;2022-08-19T05:59:39;17.65;;;11.35;;
14052;SDS011;7101;51.600;7.310;2022-08-19T06:02:06;16.00;;;11.38;;
14052;SDS011;7101;51.600;7.310;2022-08-19T06:04:33;18.23;;;12.68;;
14052;SDS011;7101;51.600;7.310;2022-08-19T06:07:00;13.15;;;11.38;;
14052;SDS011;7101;51.600;7.310;2022-08-19T06:09:27;18.77;;;13.23;;
14052;SDS011;7101;51.600;7.310;2022-08-19T06:11:57;13.93;;;12.52;;
14052;SDS011;7101;51.600;7.310;2022-08-19T06:14:28;17.95;;;13.30;;
14052;SDS011;7101;51.600;7.310;2022-08-19T06:16:56;17.65;;;12.45;;
14052;SDS011;7101;51.600;7.310;2022-08-19T06:19:25;15.70;;;13.38;;
14052;SDS011;7101;51.600;7.310;2022-08-19T06:21:56;17.13;;;14.18;;
14052;SDS011;7101;51.600;7.310;2022-08-19T06:24:24;16.77;;;14.15;;
14052;SDS011;7101;51.600;7.310;2022-08-19T06:26:54;15.50;;;13.75;;
14052;SDS011;7101;51.600;7.310;2022-08-19T06:29:24;17.23;;;14.32;;
14052;SDS011;7101;51.600;7.310;2022-08-19T06:31:53;15.68;;;14.00;;
14052;SDS011;7101;51.600;7.310;2022-08-19T06:34:22;17.90;;;15.00;;
14052;SDS011;7101;51.600;7.310;2022-08-19T06:36:50;18.50;;;15.30;;
14052;SDS011;7101;51.600;7.310;2022-08-19T06:39:18;19.35;;;16.70;;
14052;SDS011;7101;51.600;7.310;2022-08-19T06:41:48;19.63;;;15.38;;
14052;SDS011;7101;51.600;7.310;2022-08-19T06:44:16;20.90;;;16.17;;
14052;SDS011;7101;51.600;7.310;2022-08-19T06:46:45;16.67;;;14.90;;
14052;SDS011;7101;51.600;7.310;2022-08-19T06:49:13;22.30;;;15.13;;
14052;SDS011;7101;51.600;7.310;2022-08-19T06:51:41;17.17;;;15.18;;
14052;SDS011;7101;51.600;7.310;2022-08-19T06:54:09;16.67;;;14.13;;
14052;SDS011;7101;51.600;7.310;2022-08-19T06:56:36;16.88;;;14.13;;
14052;SDS011;7101;51.600;7.310;2022-08-19T06:59:05;15.38;;;13.30;;
14052;SDS011;7101;51.600;7.310;2022-08-19T07:01:34;21.48;;;12.52;;
14052;SDS011;7101;51.600;7.310;2022-08-19T07:04:04;14.77;;;12.85;;
14052;SDS011;7101;51.600;7.310;2022-08-19T07:06:32;15.57;;;12.52;;
14052;SDS011;7101;51.600;7.310;2022-08-19T07:08:59;16.23;;;13.35;;
14052;SDS011;7101;51.600;7.310;2022-08-19T07:11:26;14.30;;;12.55;;
14052;SDS011;7101;51.600;7.310;2022-08-19T07:13:54;14.70;;;12.20;;
14052;SDS011;7101;51.600;7.310;2022-08-19T07:16:21;18.08;;;14.13;;
14052;SDS011;7101;51.600;7.310;2022-08-19T07:18:48;16.88;;;13.57;;
14052;SDS011;7101;51.600;7.310;2022-08-19T07:21:17;16.40;;;12.10;;
14052;SDS011;7101;51.600;7.310;2022-08-19T07:23:50;15.93;;;11.63;;
14052;SDS011;7101;51.600;7.310;2022-08-19T07:26:18;17.15;;;11.40;;
14052;SDS011;7101;51.600;7.310;2022-08-19T07:28:53;15.55;;;10.93;;
14052;SDS011;7101;51.600;7.310;2022-08-19T07:31:22;12.90;;;10.68;;
14052;SDS011;7101;51.600;7.310;2022-08-19T07:33:51;14.15;;;10.48;;
14052;SDS011;7101;51.600;7.310;2022-08-19T07:36:22;14.38;;;9.73;;
14052;SDS011;7101;51.600;7.310;2022-08-19T07:38:51;12.15;;;9.02;;
14052;SDS011;7101;51.600;7.310;2022-08-19T07:41:18;11.88;;;9.05;;
14052;SDS011;7101;51.600;7.310;2022-08-19T07:43:47;11.02;;;8.80;;
14052;SDS011;7101;51.600;7.310;2022-08-19T07:46:17;12.10;;;8.48;;
14052;SDS011;7101;51.600;7.310;2022-08-19T07:48:45;10.38;;;8.07;;
14052;SDS011;7101;51.600;7.310;2022-08-19T07:51:15;10.38;;;8.30;;
14052;SDS011;7101;51.600;7.310;2022-08-19T07:53:45;9.68;;;7.55;;
14052;SDS011;7101;51.600;7.310;2022-08-19T07:56:14;11.13;;;8.27;;
14052;SDS011;7101;51.600;7.310;2022-08-19T07:58:42;11.77;;;8.68;;
14052;SDS011;7101;51.600;7.310;2022-08-19T08:01:11;9.88;;;8.38;;
14052;SDS011;7101;51.600;7.310;2022-08-19T08:03:39;11.23;;;8.43;;
14052;SDS011;7101;51.600;7.310;2022-08-19T08:06:24;14.90;;;8.82;;
14052;SDS011;7101;51.600;7.310;2022-08-19T08:09:09;12.20;;;8.68;;
14052;SDS011;7101;51.600;7.310;2022-08-19T08:11:37;11.57;;;9.45;;
14052;SDS011;7101;51.600;7.310;2022-08-19T08:14:04;11.15;;;8.65;;
14052;SDS011;7101;51.600;7.310;2022-08-19T08:16:33;11.25;;;9.32;;
14052;SDS011;7101;51.600;7.310;2022-08-19T08:19:03;13.48;;;8.85;;
14052;SDS011;7101;51.600;7.310;2022-08-19T08:21:31;11.13;;;10.02;;
14052;SDS011;7101;51.600;7.310;2022-08-19T08:23:59;11.02;;;9.50;;
14052;SDS011;7101;51.600;7.310;2022-08-19T08:26:27;12.43;;;9.68;;
14052;SDS011;7101;51.600;7.310;2022-08-19T08:28:54;14.45;;;9.55;;
14052;SDS011;7101;51.600;7.310;2022-08-19T08:31:21;10.82;;;9.18;;
14052;SDS011;7101;51.600;7.310;2022-08-19T08:33:48;12.43;;;9.30;;
14052;SDS011;7101;51.600;7.310;2022-08-19T08:36:15;14.73;;;9.70;;
14052;SDS011;7101;51.600;7.310;2022-08-19T08:38:43;11.85;;;9.15;;
14052;SDS011;7101;51.600;7.310;2022-08-19T08:41:13;13.18;;;10.13;;
14052;SDS011;7101;51.600;7.310;2022-08-19T08:43:48;10.88;;;9.68;;
14052;SDS011;7101;51.600;7.310;2022-08-19T08:46:18;12.10;;;9.23;;
14052;SDS011;7101;51.600;7.310;2022-08-19T08:48:52;10.57;;;9.48;;
14052;SDS011;7101;51.600;7.310;2022-08-19T08:51:22;9.80;;;8.77;;
14052;SDS011;7101;51.600;7.310;2022-08-19T08:53:53;13.73;;;10.02;;
14052;SDS011;7101;51.600;7.310;2022-08-19T08:56:22;14.77;;;9.40;;
14052;SDS011;7101;51.600;7.310;2022-08-19T08:58:51;12.75;;;9.30;;
14052;SDS011;7101;51.600;7.310;2022-08-19T09:01:24;8.50;;;7.60;;
14052;SDS011;7101;51.600;7.310;2022-08-19T09:03:52;12.77;;;9.38;;
14052;SDS011;7101;51.600;7.310;2022-08-19T09:06:21;11.10;;;8.98;;
14052;SDS011;7101;51.600;7.310;2022-08-19T09:08:56;9.98;;;8.68;;
14052;SDS011;7101;51.600;7.310;2022-08-19T09:11:33;9.50;;;7.88;;
14052;SDS011;7101;51.600;7.310;2022-08-19T09:14:13;7.60;;;6.90;;
14052;SDS011;7101;51.600;7.310;2022-08-19T09:16:47;9.73;;;7.03;;
14052;SDS011;7101;51.600;7.310;2022-08-19T09:19:14;9.40;;;8.32;;
14052;SDS011;7101;51.600;7.310;2022-08-19T09:21:42;12.10;;;8.20;;
14052;SDS011;7101;51.600;7.310;2022-08-19T09:24:10;10.90;;;9.80;;
14052;SDS011;7101;51.600;7.310;2022-08-19T09:26:37;9.63;;;8.20;;
14052;SDS011;7101;51.600;7.310;2022-08-19T09:29:04;8.68;;;7.78;;
14052;SDS011;7101;51.600;7.310;2022-08-19T09:31:33;8.73;;;7.82;;
14052;SDS011;7101;51.600;7.310;2022-08-19T09:34:00;7.43;;;6.03;;
14052;SDS011;7101;51.600;7.310;2022-08-19T09:36:28;7.97;;;6.93;;
14052;SDS011;7101;51.600;7.310;2022-08-19T09:38:57;9.43;;;8.40;;
14052;SDS011;7101;51.600;7.310;2022-08-19T09:41:26;11.88;;;8.15;;
14052;SDS011;7101;51.600;7.310;2022-08-19T09:43:54;8.80;;;7.43;;
14052;SDS011;7101;51.600;7.310;2022-08-19T09:46:22;9.70;;;8.70;;
14052;SDS011;7101;51.600;7.310;2022-08-19T09:48:52;12.82;;;8.77;;
14052;SDS011;7101;51.600;7.310;2022-08-19T09:51:20;12.25;;;8.75;;
14052;SDS011;7101;51.600;7.310;2022-08-19T09:53:49;9.98;;;8.98;;
14052;SDS011;7101;51.600;7.310;2022-08-19T09:56:19;9.95;;;9.05;;
14052;SDS011;7101;51.600;7.310;2022-08-19T09:58:47;10.13;;;9.13;;
14052;SDS011;7101;51.600;7.310;2022-08-19T10:01:17;11.88;;;9.30;;
14052;SDS011;7101;51.600;7.310;2022-08-19T10:03:47;11.05;;;9.80;;
14052;SDS011;7101;51.600;7.310;2022-08-19T10:06:17;9.48;;;8.57;;
14052;SDS011;7101;51.600;7.310;2022-08-19T10:08:45;11.85;;;9.23;;
14052;SDS011;7101;51.600;7.310;2022-08-19T10:11:12;13.30;;;9.40;;
14052;SDS011;7101;51.600;7.310;2022-08-19T10:13:42;10.07;;;9.05;;
14052;SDS011;7101;51.600;7.310;2022-08-19T10:16:10;10.25;;;9.00;;
14052;SDS011;7101;51.600;7.310;2022-08-19T10:18:41;10.48;;;9.10;;
14052;SDS011;7101;51.600;7.310;2022-08-19T10:21:10;9.60;;;8.68;;
14052;SDS011;7101;51.600;7.310;2022-08-19T10:23:40;11.32;;;10.18;;
14052;SDS011;7101;51.600;7.310;2022-08-19T10:26:09;11.27;;;9.95;;
14052;SDS011;7101;51.600;7.310;2022-08-19T10:28:38;8.20;;;6.97;;
14052;SDS011;7101;51.600;7.310;2022-08-19T10:31:06;9.50;;;7.32;;
14052;SDS011;7101;51.600;7.310;2022-08-19T10:33:34;8.43;;;7.60;;
14052;SDS011;7101;51.600;7.310;2022-08-19T10:36:03;8.85;;;7.88;;
14052;SDS011;7101;51.600;7.310;2022-08-19T10:38:32;10.43;;;8.25;;
14052;SDS011;7101;51.600;7.310;2022-08-19T10:41:07;14.57;;;10.52;;
14052;SDS011;7101;51.600;7.310;2022-08-19T10:43:35;14.80;;;9.93;;
14052;SDS011;7101;51.600;7.310;2022-08-19T10:46:03;12.18;;;8.27;;
14052;SDS011;7101;51.600;7.310;2022-08-19T10:48:31;11.85;;;9.95;;
14052;SDS011;7101;51.600;7.310;2022-08-19T10:50:58;10.93;;;8.95;;
14052;SDS011;7101;51.600;7.310;2022-08-19T10:53:42;10.85;;;7.55;;
14052;SDS011;7101;51.600;7.310;2022-08-19T10:56:10;14.65;;;8.50;;
14052;SDS011;7101;51.600;7.310;2022-08-19T10:58:55;13.02;;;6.43;;
14052;SDS011;7101;51.600;7.310;2022-08-19T11:01:22;7.30;;;6.60;;
14052;SDS011;7101;51.600;7.310;2022-08-19T11:03:49;9.55;;;7.95;;
14052;SDS011;7101;51.600;7.310;2022-08-19T11:06:17;18.17;;;6.57;;
14052;SDS011;7101;51.600;7.310;2022-08-19T11:08:45;9.55;;;5.82;;
14052;SDS011;7101;51.600;7.310;2022-08-19T11:11:13;8.63;;;6.13;;
14052;SDS011;7101;51.600;7.310;2022-08-19T11:13:40;8.25;;;5.68;;
14052;SDS011;7101;51.600;7.310;2022-08-19T11:16:10;7.32;;;6.22;;
14052;SDS011;7101;51.600;7.310;2022-08-19T11:18:41;7.22;;;5.97;;
14052;SDS011;7101;51.600;7.310;2022-08-19T11:21:10;6.85;;;6.15;;
14052;SDS011;7101;51.600;7.310;2022-08-19T11:23:42;11.85;;;7.03;;
14052;SDS011;7101;51.600;7.310;2022-08-19T11:26:09;14.25;;;7.45;;
14052;SDS011;7101;51.600;7.310;2022-08-19T11:28:38;12.15;;;6.88;;
14052;SDS011;7101;51.600;7.310;2022-08-19T11:31:08;27.00;;;8.77;;
14052;SDS011;7101;51.600;7.310;2022-08-19T11:33:36;8.18;;;7.35;;
14052;SDS011;7101;51.600;7.310;2022-08-19T11:36:03;9.38;;;7.07;;
14052;SDS011;7101;51.600;7.310;2022-08-19T11:38:32;9.38;;;6.38;;
14052;SDS011;7101;51.600;7.310;2022-08-19T11:41:00;10.57;;;8.70;;
14052;SDS011;7101;51.600;7.310;2022-08-19T11:43:29;9.25;;;7.40;;
14052;SDS011;7101;51.600;7.310;2022-08-19T11:45:58;12.02;;;8.48;;
14052;SDS011;7101;51.600;7.310;2022-08-19T11:48:25;11.25;;;9.52;;
14052;SDS011;7101;51.600;7.310;2022-08-19T11:50:52;11.30;;;8.80;;
14052;SDS011;7101;51.600;7.310;2022-08-19T11:53:20;13.10;;;9.30;;
14052;SDS011;7101;51.600;7.310;2022-08-19T11:55:47;14.13;;;9.27;;
14052;SDS011;7101;51.600;7.310;2022-08-19T11:58:16;10.23;;;8.50;;
14052;SDS011;7101;51.600;7.310;2022-08-19T12:00:43;8.25;;;7.40;;
14052;SDS011;7101;51.600;7.310;2022-08-19T12:03:14;9.10;;;8.20;;
14052;SDS011;7101;51.600;7.310;2022-08-19T12:05:41;10.32;;;8.30;;
14052;SDS011;7101;51.600;7.310;2022-08-19T12:08:08;9.85;;;7.55;;
14052;SDS011;7101;51.600;7.310;2022-08-19T12:10:36;7.53;;;6.82;;
14052;SDS011;7101;51.600;7.310;2022-08-19T12:13:03;9.13;;;5.97;;
14052;SDS011;7101;51.600;7.310;2022-08-19T12:15:34;7.60;;;6.90;;
14052;SDS011;7101;51.600;7.310;2022-08-19T12:18:02;7.70;;;6.00;;
14052;SDS011;7101;51.600;7.310;2022-08-19T12:20:30;7.22;;;6.53;;
14052;SDS011;7101;51.600;7.310;2022-08-19T12:23:00;8.15;;;7.22;;
14052;SDS011;7101;51.600;7.310;2022-08-19T12:25:26;8.15;;;7.00;;
14052;SDS011;7101;51.600;7.310;2022-08-19T12:27:53;8.88;;;7.43;;
14052;SDS011;7101;51.600;7.310;2022-08-19T12:30:20;6.90;;;6.20;;
14052;SDS011;7101;51.600;7.310;2022-08-19T12:32:47;7.93;;;6.25;;
14052;SDS011;7101;51.600;7.310;2022-08-19T12:35:13;7.32;;;6.60;;
14052;SDS011;7101;51.600;7.310;2022-08-19T12:37:42;7.47;;;6.78;;
14052;SDS011;7101;51.600;7.310;2022-08-19T12:40:10;12.23;;;7.47;;
14052;SDS011;7101;51.600;7.310;2022-08-19T12:42:38;8.68;;;7.47;;
14052;SDS011;7101;51.600;7.310;2022-08-19T12:45:07;8.30;;;6.40;;
14052;SDS011;7101;51.600;7.310;2022-08-19T12:47:35;8.98;;;5.90;;
14052;SDS011;7101;51.600;7.310;2022-08-19T12:50:02;7.22;;;6.10;;
14052;SDS011;7101;51.600;7.310;2022-08-19T12:52:33;6.32;;;5.30;;
14052;SDS011;7101;51.600;7.310;2022-08-19T12:55:05;7.88;;;5.60;;
14052;SDS011;7101;51.600;7.310;2022-08-19T12:57:33;7.22;;;5.55;;
14052;SDS011;7101;51.600;7.310;2022-08-19T13:00:03;7.28;;;5.50;;
14052;SDS011;7101;51.600;7.310;2022-08-19T13:05:00;7.25;;;6.55;;
14052;SDS011;7101;51.600;7.310;2022-08-19T13:07:27;6.30;;;5.57;;
14052;SDS011;7101;51.600;7.310;2022-08-19T13:09:55;5.70;;;5.20;;
14052;SDS011;7101;51.600;7.310;2022-08-19T13:12:23;9.52;;;5.78;;
14052;SDS011;7101;51.600;7.310;2022-08-19T13:14:51;8.98;;;6.88;;
14052;SDS011;7101;51.600;7.310;2022-08-19T13:17:18;9.52;;;6.28;;
14052;SDS011;7101;51.600;7.310;2022-08-19T13:19:45;10.25;;;6.22;;
14052;SDS011;7101;51.600;7.310;2022-08-19T13:22:12;9.18;;;6.97;;
14052;SDS011;7101;51.600;7.310;2022-08-19T13:24:39;8.50;;;6.78;;
14052;SDS011;7101;51.600;7.310;2022-08-19T13:27:06;8.63;;;6.80;;
14052;SDS011;7101;51.600;7.310;2022-08-19T13:29:34;8.50;;;6.20;;
14052;SDS011;7101;51.600;7.310;2022-08-19T13:32:19;8.00;;;6.95;;
14052;SDS011;7101;51.600;7.310;2022-08-19T13:35:11;8.35;;;6.95;;
14052;SDS011;7101;51.600;7.310;2022-08-19T13:37:38;9.13;;;6.35;;
14052;SDS011;7101;51.600;7.310;2022-08-19T13:40:09;7.07;;;6.38;;
14052;SDS011;7101;51.600;7.310;2022-08-19T13:42:40;13.55;;;6.22;;
14052;SDS011;7101;51.600;7.310;2022-08-19T13:45:08;11.07;;;5.85;;
14052;SDS011;7101;51.600;7.310;2022-08-19T13:47:36;8.55;;;6.30;;
14052;SDS011;7101;51.600;7.310;2022-08-19T13:50:07;6.90;;;5.85;;
14052;SDS011;7101;51.600;7.310;2022-08-19T13:52:35;7.97;;;6.57;;
14052;SDS011;7101;51.600;7.310;2022-08-19T13:55:02;6.45;;;5.00;;
14052;SDS011;7101;51.600;7.310;2022-08-19T13:57:30;6.40;;;5.35;;
14052;SDS011;7101;51.600;7.310;2022-08-19T13:59:57;6.22;;;4.25;;
14052;SDS011;7101;51.600;7.310;2022-08-19T14:02:25;5.95;;;5.35;;
14052;SDS011;7101;51.600;7.310;2022-08-19T14:04:52;6.75;;;5.07;;
14052;SDS011;7101;51.600;7.310;2022-08-19T14:07:19;6.53;;;5.13;;
14052;SDS011;7101;51.600;7.310;2022-08-19T14:09:48;5.82;;;4.38;;
14052;SDS011;7101;51.600;7.310;2022-08-19T14:12:18;7.25;;;4.78;;
14052;SDS011;7101;51.600;7.310;2022-08-19T14:14:45;9.07;;;4.22;;
14052;SDS011;7101;51.600;7.310;2022-08-19T14:17:12;5.95;;;4.28;;
14052;SDS011;7101;51.600;7.310;2022-08-19T14:19:40;9.10;;;4.22;;
14052;SDS011;7101;51.600;7.310;2022-08-19T14:22:07;4.50;;;3.65;;
14052;SDS011;7101;51.600;7.310;2022-08-19T14:24:35;5.90;;;4.20;;
14052;SDS011;7101;51.600;7.310;2022-08-19T14:27:03;4.60;;;3.88;;
14052;SDS011;7101;51.600;7.310;2022-08-19T14:29:31;5.03;;;4.03;;
14052;SDS011;7101;51.600;7.310;2022-08-19T14:31:58;4.78;;;3.90;;
14052;SDS011;7101;51.600;7.310;2022-08-19T14:34:24;6.05;;;3.75;;
14052;SDS011;7101;51.600;7.310;2022-08-19T14:36:53;6.53;;;3.80;;
14052;SDS011;7101;51.600;7.310;2022-08-19T14:39:20;7.95;;;4.00;;
14052;SDS011;7101;51.600;7.310;2022-08-19T14:41:49;10.27;;;3.95;;
14052;SDS011;7101;51.600;7.310;2022-08-19T14:44:16;7.57;;;3.70;;
14052;SDS011;7101;51.600;7.310;2022-08-19T14:46:43;7.47;;;3.67;;
14052;SDS011;7101;51.600;7.310;2022-08-19T14:49:10;4.93;;;3.80;;
14052;SDS011;7101;51.600;7.310;2022-08-19T14:51:37;4.72;;;3.58;;
14052;SDS011;7101;51.600;7.310;2022-08-19T14:54:05;7.30;;;4.10;;
14052;SDS011;7101;51.600;7.310;2022-08-19T14:56:32;5.80;;;4.40;;
14052;SDS011;7101;51.600;7.310;2022-08-19T14:58:59;4.72;;;3.97;;
14052;SDS011;7101;51.600;7.310;2022-08-19T15:01:26;4.13;;;3.40;;